createdAt,value
2018-08-12T00:00:02.484Z,79.40
2018-08-12T00:02:30.553Z,77.60
2018-08-12T00:04:58.688Z,77.70
2018-08-12T00:07:28.541Z,79.10
2018-08-12T00:09:56.940Z,78.50
2018-08-12T00:12:25.141Z,79.40
2018-08-12T00:14:53.470Z,80.80
2018-08-12T00:17:21.773Z,81.90
2018-08-12T00:19:50.129Z,81.40
2018-08-12T00:22:18.283Z,81.70
2018-08-12T00:24:46.368Z,80.60
2018-08-12T00:27:14.463Z,81.30
2018-08-12T00:29:42.534Z,83.40
2018-08-12T00:32:10.606Z,82.80
2018-08-12T00:34:38.685Z,82.50
2018-08-12T00:37:07.686Z,82.80
2018-08-12T00:39:35.751Z,87.20
2018-08-12T00:42:03.891Z,86.10
2018-08-12T00:44:31.972Z,86.50
2018-08-12T00:47:00.101Z,86.40
2018-08-12T00:49:28.185Z,88.30
2018-08-12T00:51:56.360Z,87.60
2018-08-12T00:54:24.512Z,89.00
2018-08-12T00:56:52.618Z,88.10
2018-08-12T00:59:20.688Z,90.80
2018-08-12T01:01:48.744Z,90.60
2018-08-12T01:04:16.788Z,90.50
2018-08-12T01:06:44.965Z,91.40
2018-08-12T01:09:13.814Z,91.10
2018-08-12T01:11:42.100Z,92.00
2018-08-12T01:14:10.400Z,92.40
2018-08-12T01:16:38.475Z,93.00
2018-08-12T01:19:06.574Z,92.70
2018-08-12T01:21:34.865Z,93.00
2018-08-12T01:24:03.007Z,93.20
2018-08-12T01:26:31.062Z,94.30
2018-08-12T01:28:59.166Z,94.30
2018-08-12T01:31:27.237Z,95.20
2018-08-12T01:33:55.332Z,95.40
2018-08-12T01:36:23.404Z,95.10
2018-08-12T01:38:51.472Z,96.10
2018-08-12T01:41:19.592Z,96.00
2018-08-12T01:43:47.661Z,96.10
2018-08-12T01:46:15.872Z,95.90
2018-08-12T01:48:43.945Z,96.30
2018-08-12T01:51:12.024Z,95.90
2018-08-12T01:53:40.114Z,96.90
2018-08-12T01:56:08.658Z,96.10
2018-08-12T01:58:36.742Z,96.80
2018-08-12T02:01:04.853Z,96.30
2018-08-12T02:03:32.937Z,97.40
2018-08-12T02:06:01.028Z,97.50
2018-08-12T02:08:29.096Z,97.20
2018-08-12T02:10:57.177Z,97.00
2018-08-12T02:13:25.237Z,97.80
2018-08-12T02:15:53.317Z,97.70
2018-08-12T02:18:21.380Z,98.20
2018-08-12T02:20:49.479Z,97.90
2018-08-12T02:23:17.541Z,98.60
2018-08-12T02:25:45.628Z,99.00
2018-08-12T02:28:13.685Z,98.60
2018-08-12T02:30:41.737Z,99.00
2018-08-12T02:33:09.842Z,98.80
2018-08-12T02:35:37.942Z,98.70
2018-08-12T02:38:06.035Z,99.20
2018-08-12T02:40:34.133Z,98.80
2018-08-12T02:43:02.220Z,99.60
2018-08-12T02:45:30.300Z,99.90
2018-08-12T02:47:58.414Z,99.90
2018-08-12T02:50:26.512Z,99.90
2018-08-12T02:52:54.599Z,99.90
2018-08-12T02:55:22.668Z,99.90
2018-08-12T02:57:50.719Z,99.90
2018-08-12T03:00:18.788Z,99.90
2018-08-12T03:02:46.867Z,99.90
2018-08-12T03:05:15.932Z,99.90
2018-08-12T03:07:44.070Z,99.90
2018-08-12T03:10:12.166Z,99.90
2018-08-12T03:12:40.271Z,99.90
2018-08-12T03:17:58.949Z,99.90
2018-08-12T03:20:27.042Z,99.90
2018-08-12T03:22:55.129Z,99.90
2018-08-12T03:25:23.190Z,99.90
2018-08-12T03:27:51.286Z,99.90
2018-08-12T03:30:19.404Z,99.90
2018-08-12T03:32:47.433Z,99.90
2018-08-12T03:35:15.498Z,99.90
2018-08-12T03:37:43.555Z,99.90
2018-08-12T03:40:13.348Z,99.90
2018-08-12T03:42:41.934Z,99.90
2018-08-12T03:45:10.213Z,99.90
2018-08-12T03:47:38.483Z,99.90
2018-08-12T03:50:07.304Z,99.90
2018-08-12T03:52:35.374Z,99.90
2018-08-12T03:55:03.754Z,99.90
2018-08-12T03:57:31.818Z,99.90
2018-08-12T03:59:59.884Z,99.90
2018-08-12T04:02:28.991Z,99.90
2018-08-12T04:04:57.129Z,99.90
2018-08-12T04:07:25.197Z,99.90
2018-08-12T04:09:53.268Z,99.90
2018-08-12T04:12:21.649Z,99.90
2018-08-12T04:14:49.753Z,99.90
2018-08-12T04:17:17.832Z,99.90
2018-08-12T04:19:45.889Z,99.90
2018-08-12T04:22:14.012Z,99.90
2018-08-12T04:24:42.232Z,99.90
2018-08-12T04:27:10.329Z,99.90
2018-08-12T04:29:38.401Z,99.90
2018-08-12T04:32:06.535Z,99.90
2018-08-12T04:34:34.619Z,99.90
2018-08-12T04:37:02.693Z,99.90
2018-08-12T04:39:30.761Z,99.90
2018-08-12T04:41:58.824Z,99.90
2018-08-12T04:44:27.421Z,99.90
2018-08-12T04:46:55.499Z,99.90
2018-08-12T04:49:23.576Z,99.90
2018-08-12T04:51:51.653Z,99.90
2018-08-12T04:54:19.712Z,99.90
2018-08-12T04:56:47.820Z,99.90
2018-08-12T04:59:15.868Z,99.90
2018-08-12T05:01:43.928Z,99.90
2018-08-12T05:04:11.986Z,99.90
2018-08-12T05:06:40.065Z,99.90
2018-08-12T05:09:10.288Z,99.90
2018-08-12T05:11:38.576Z,99.90
2018-08-12T05:16:41.170Z,99.90
2018-08-12T05:19:09.277Z,99.90
2018-08-12T05:21:37.344Z,99.90
2018-08-12T05:24:05.412Z,99.90
2018-08-12T05:26:33.458Z,99.90
2018-08-12T05:29:01.521Z,99.90
2018-08-12T05:31:29.632Z,99.90
2018-08-12T05:33:57.721Z,99.90
2018-08-12T05:36:25.775Z,99.90
2018-08-12T05:38:53.845Z,99.90
2018-08-12T05:41:21.907Z,99.90
2018-08-12T05:43:50.014Z,99.90
2018-08-12T05:46:18.092Z,99.90
2018-08-12T05:48:46.252Z,99.90
2018-08-12T05:51:14.406Z,99.90
2018-08-12T05:53:43.244Z,99.90
2018-08-12T05:56:11.324Z,99.90
2018-08-12T05:58:39.414Z,99.90
2018-08-12T06:01:07.480Z,99.90
2018-08-12T06:03:35.575Z,99.90
2018-08-12T06:06:03.676Z,99.90
2018-08-12T06:08:31.955Z,99.90
2018-08-12T06:11:00.097Z,99.90
2018-08-12T06:13:28.145Z,99.90
2018-08-12T06:15:56.187Z,99.90
2018-08-12T06:18:24.264Z,99.90
2018-08-12T06:20:52.372Z,99.90
2018-08-12T06:23:20.428Z,99.90
2018-08-12T06:25:48.536Z,99.90
2018-08-12T06:28:16.600Z,99.90
2018-08-12T06:30:44.673Z,99.90
2018-08-12T06:33:12.765Z,99.90
2018-08-12T06:35:40.869Z,99.90
2018-08-12T06:38:09.018Z,99.90
2018-08-12T06:40:37.126Z,99.90
2018-08-12T06:43:05.200Z,99.90
2018-08-12T06:45:33.275Z,99.90
2018-08-12T06:48:01.339Z,99.90
2018-08-12T06:50:29.417Z,99.90
2018-08-12T06:52:57.480Z,99.90
2018-08-12T06:55:25.951Z,99.90
2018-08-12T06:57:54.082Z,99.90
2018-08-12T07:00:22.169Z,99.90
2018-08-12T07:02:50.252Z,98.90
2018-08-12T07:05:18.293Z,99.10
2018-08-12T07:07:46.328Z,98.40
2018-08-12T07:10:15.254Z,98.40
2018-08-12T07:12:43.316Z,97.10
2018-08-12T07:15:15.739Z,96.70
2018-08-12T07:17:45.495Z,96.80
2018-08-12T07:20:14.085Z,96.40
2018-08-12T07:22:42.188Z,96.20
2018-08-12T07:25:11.549Z,96.50
2018-08-12T07:27:40.794Z,95.80
2018-08-12T07:30:10.867Z,96.40
2018-08-12T07:32:38.968Z,95.30
2018-08-12T07:35:08.021Z,95.20
2018-08-12T07:37:36.114Z,94.70
2018-08-12T07:40:13.405Z,93.90
2018-08-12T07:42:41.536Z,93.30
2018-08-12T07:45:11.284Z,93.70
2018-08-12T07:47:39.476Z,93.60
2018-08-12T07:50:08.818Z,92.50
2018-08-12T07:52:36.941Z,92.00
2018-08-12T07:55:06.192Z,91.90
2018-08-12T07:57:34.670Z,92.50
2018-08-12T08:00:04.436Z,92.00
2018-08-12T08:02:32.758Z,90.50
2018-08-12T08:05:00.842Z,89.40
2018-08-12T08:07:28.956Z,86.80
2018-08-12T08:09:57.115Z,83.90
2018-08-12T08:12:25.379Z,84.40
2018-08-12T08:14:53.431Z,84.30
2018-08-12T08:17:21.503Z,82.40
2018-08-12T08:19:49.707Z,81.60
2018-08-12T08:22:17.854Z,78.00
2018-08-12T08:24:45.949Z,74.60
2018-08-12T08:27:14.302Z,72.50
2018-08-12T08:29:42.437Z,73.30
2018-08-12T08:32:10.547Z,70.20
2018-08-12T08:34:38.629Z,70.40
2018-08-12T08:37:06.761Z,68.30
2018-08-12T08:39:34.875Z,67.90
2018-08-12T08:42:03.106Z,66.20
2018-08-12T08:44:31.201Z,64.50
2018-08-12T08:46:59.317Z,63.90
2018-08-12T08:49:27.375Z,63.60
2018-08-12T08:51:55.466Z,62.50
2018-08-12T08:54:23.571Z,60.50
2018-08-12T08:56:51.746Z,58.00
2018-08-12T08:59:19.810Z,57.60
2018-08-12T09:01:47.926Z,57.20
2018-08-12T09:04:16.042Z,55.10
2018-08-12T09:06:44.168Z,55.40
2018-08-12T09:09:15.154Z,53.40
2018-08-12T09:11:43.552Z,52.90
2018-08-12T09:14:12.053Z,52.60
2018-08-12T09:16:40.426Z,51.60
2018-08-12T09:19:08.585Z,48.40
2018-08-12T09:21:36.894Z,48.60
2018-08-12T09:24:05.832Z,46.20
2018-08-12T09:26:33.869Z,44.30
2018-08-12T09:29:02.192Z,43.10
2018-08-12T09:31:30.617Z,40.00
2018-08-12T09:33:59.005Z,38.70
2018-08-12T09:36:27.205Z,38.00
2018-08-12T09:38:55.561Z,37.40
2018-08-12T09:41:23.841Z,36.30
2018-08-12T09:47:40.229Z,35.30
2018-08-12T09:50:10.252Z,33.00
2018-08-12T09:52:39.031Z,32.00
2018-08-12T09:55:08.124Z,31.30
2018-08-12T09:57:36.721Z,32.00
2018-08-12T10:00:08.733Z,30.70
2018-08-12T10:02:37.082Z,29.90
2018-08-12T10:05:12.184Z,30.30
2018-08-12T10:07:40.319Z,30.20
2018-08-12T10:10:34.843Z,30.20
2018-08-12T10:13:14.158Z,29.80
2018-08-12T10:15:43.360Z,29.30
2018-08-12T10:21:23.310Z,28.40
2018-08-12T10:23:54.174Z,28.00
2018-08-12T10:26:22.677Z,27.50
2018-08-12T10:28:51.767Z,27.70
2018-08-12T10:31:19.858Z,27.60
2018-08-12T10:33:49.091Z,27.30
2018-08-12T10:36:18.095Z,26.70
2018-08-12T10:38:46.169Z,26.70
2018-08-12T10:41:21.938Z,25.90
2018-08-12T10:43:51.170Z,26.40
2018-08-12T10:46:19.225Z,27.00
2018-08-12T10:48:48.184Z,26.90
2018-08-12T10:51:16.661Z,27.10
2018-08-12T10:53:44.717Z,26.60
2018-08-12T10:56:12.936Z,26.50
2018-08-12T10:58:41.686Z,27.70
2018-08-12T11:01:09.741Z,28.40
2018-08-12T11:03:37.806Z,26.80
2018-08-12T11:06:05.898Z,25.60
2018-08-12T11:08:33.994Z,26.40
2018-08-12T11:11:02.097Z,26.30
2018-08-12T11:13:30.177Z,25.80
2018-08-12T11:15:58.229Z,26.00
2018-08-12T11:18:26.310Z,25.90
2018-08-12T11:20:54.392Z,25.50
2018-08-12T11:23:22.477Z,24.40
2018-08-12T11:25:50.551Z,25.10
2018-08-12T11:28:18.658Z,24.50
2018-08-12T11:30:46.732Z,24.00
2018-08-12T11:33:14.881Z,23.50
2018-08-12T11:35:42.937Z,23.80
2018-08-12T11:38:11.003Z,23.60
2018-08-12T11:40:39.078Z,23.10
2018-08-12T11:43:07.359Z,22.20
2018-08-12T11:45:35.516Z,23.20
2018-08-12T11:48:03.584Z,24.20
2018-08-12T11:50:31.667Z,23.10
2018-08-12T11:52:59.778Z,23.10
2018-08-12T11:55:27.853Z,23.10
2018-08-12T11:57:55.965Z,23.10
2018-08-12T12:00:24.167Z,22.40
2018-08-12T12:02:52.816Z,22.40
2018-08-12T12:05:21.105Z,23.90
2018-08-12T12:07:49.178Z,24.20
2018-08-12T12:10:18.981Z,22.50
2018-08-12T12:12:48.204Z,22.80
2018-08-12T12:15:16.796Z,22.60
2018-08-12T12:17:45.245Z,22.90
2018-08-12T12:20:14.142Z,22.70
2018-08-12T12:22:42.845Z,22.30
2018-08-12T12:25:12.247Z,21.70
2018-08-12T12:27:40.346Z,22.90
2018-08-12T12:30:10.753Z,22.10
2018-08-12T12:32:38.849Z,21.80
2018-08-12T12:35:07.087Z,21.80
2018-08-12T12:37:35.188Z,21.80
2018-08-12T12:40:04.093Z,21.60
2018-08-12T12:42:32.136Z,21.50
2018-08-12T12:45:00.210Z,21.50
2018-08-12T12:47:28.352Z,21.40
2018-08-12T12:49:56.422Z,20.20
2018-08-12T12:52:24.526Z,20.80
2018-08-12T12:54:52.589Z,21.50
2018-08-12T12:57:20.658Z,20.80
2018-08-12T12:59:48.726Z,21.30
2018-08-12T13:02:16.882Z,21.10
2018-08-12T13:04:44.984Z,21.90
2018-08-12T13:07:13.111Z,21.30
2018-08-12T13:09:41.174Z,21.70
2018-08-12T13:12:09.235Z,22.60
2018-08-12T13:14:37.333Z,21.80
2018-08-12T13:17:05.455Z,21.80
2018-08-12T13:19:33.531Z,22.00
2018-08-12T13:22:01.602Z,22.20
2018-08-12T13:24:29.881Z,23.40
2018-08-12T13:26:58.023Z,23.20
2018-08-12T13:29:26.179Z,24.20
2018-08-12T13:31:54.238Z,25.20
2018-08-12T13:34:22.301Z,25.20
2018-08-12T13:36:50.373Z,26.50
2018-08-12T13:39:18.432Z,25.80
2018-08-12T13:41:46.496Z,25.70
2018-08-12T13:44:14.624Z,25.70
2018-08-12T13:46:42.710Z,26.50
2018-08-12T13:49:10.891Z,26.30
2018-08-12T13:51:38.914Z,25.90
2018-08-12T13:54:06.984Z,26.20
2018-08-12T13:56:35.083Z,26.50
2018-08-12T13:59:03.527Z,27.20
2018-08-12T14:01:31.755Z,26.70
2018-08-12T14:03:59.803Z,27.10
2018-08-12T14:06:28.028Z,27.60
2018-08-12T14:08:56.188Z,28.20
2018-08-12T14:11:24.284Z,28.20
2018-08-12T14:13:52.402Z,27.80
2018-08-12T14:16:20.481Z,25.80
2018-08-12T14:18:48.605Z,26.30
2018-08-12T14:21:16.703Z,26.70
2018-08-12T14:23:44.792Z,25.90
2018-08-12T14:26:12.873Z,26.80
2018-08-12T14:28:40.961Z,26.40
2018-08-12T14:31:09.585Z,26.60
2018-08-12T14:33:37.646Z,26.30
2018-08-12T14:36:05.713Z,26.50
2018-08-12T14:38:33.798Z,27.30
2018-08-12T14:41:01.897Z,27.70
2018-08-12T14:43:30.031Z,27.60
2018-08-12T14:45:58.108Z,27.60
2018-08-12T14:48:26.210Z,27.70
2018-08-12T14:50:54.297Z,27.10
2018-08-12T14:53:22.391Z,27.50
2018-08-12T14:55:50.490Z,28.00
2018-08-12T14:58:18.584Z,28.10
2018-08-12T15:00:46.662Z,27.30
2018-08-12T15:03:14.744Z,27.90
2018-08-12T15:05:42.825Z,28.10
2018-08-12T15:08:10.900Z,27.50
2018-08-12T15:10:39.033Z,27.70
2018-08-12T15:13:07.163Z,27.60
2018-08-12T15:15:35.231Z,27.90
2018-08-12T15:18:03.316Z,28.20
2018-08-12T15:20:31.406Z,28.40
2018-08-12T15:22:59.563Z,28.10
2018-08-12T15:25:27.575Z,28.10
2018-08-12T15:27:55.658Z,27.80
2018-08-12T15:30:23.756Z,28.00
2018-08-12T15:32:51.820Z,28.20
2018-08-12T15:35:19.854Z,28.50
2018-08-12T15:37:47.981Z,28.30
2018-08-12T15:40:16.296Z,28.70
2018-08-12T15:42:44.667Z,29.10
2018-08-12T15:45:14.352Z,30.20
2018-08-12T15:47:43.152Z,30.30
2018-08-12T15:50:11.821Z,29.90
2018-08-12T15:52:40.724Z,30.20
2018-08-12T15:55:09.223Z,30.60
2018-08-12T15:57:37.376Z,32.50
2018-08-12T16:00:09.629Z,29.60
2018-08-12T16:02:38.076Z,30.10
2018-08-12T16:05:06.181Z,29.90
2018-08-12T16:07:34.836Z,30.00
2018-08-12T16:10:02.918Z,30.70
2018-08-12T16:12:31.005Z,30.50
2018-08-12T16:14:59.053Z,30.50
2018-08-12T16:17:36.365Z,29.60
2018-08-12T16:20:05.105Z,29.40
2018-08-12T16:22:33.197Z,30.30
2018-08-12T16:25:01.483Z,30.40
2018-08-12T16:27:29.657Z,32.10
2018-08-12T16:29:57.837Z,31.50
2018-08-12T16:32:25.875Z,32.00
2018-08-12T16:34:54.027Z,32.80
2018-08-12T16:37:22.149Z,31.80
2018-08-12T16:39:50.893Z,30.80
2018-08-12T16:42:19.031Z,31.60
2018-08-12T16:44:47.128Z,30.90
2018-08-12T16:47:15.238Z,31.30
2018-08-12T16:49:43.302Z,31.30
2018-08-12T16:52:11.411Z,31.60
2018-08-12T16:54:39.483Z,30.90
2018-08-12T16:57:08.840Z,32.60
2018-08-12T16:59:36.944Z,32.20
2018-08-12T17:02:05.071Z,31.40
2018-08-12T17:04:33.216Z,32.70
2018-08-12T17:07:01.298Z,35.30
2018-08-12T17:09:29.475Z,34.90
2018-08-12T17:11:57.719Z,34.10
2018-08-12T17:14:25.780Z,34.40
2018-08-12T17:16:53.878Z,36.00
2018-08-12T17:19:22.225Z,37.50
2018-08-12T17:21:50.305Z,38.20
2018-08-12T17:24:18.421Z,38.20
2018-08-12T17:26:46.509Z,38.60
2018-08-12T17:29:14.609Z,39.10
2018-08-12T17:31:43.287Z,39.10
2018-08-12T17:34:11.345Z,39.60
2018-08-12T17:36:39.435Z,39.60
2018-08-12T17:39:08.932Z,40.00
2018-08-12T17:41:36.975Z,40.90
2018-08-12T17:44:05.140Z,41.40
2018-08-12T17:46:33.224Z,41.40
2018-08-12T17:49:01.392Z,41.80
2018-08-12T17:51:29.464Z,41.40
2018-08-12T17:53:58.460Z,41.70
2018-08-12T17:56:26.541Z,42.30
2018-08-12T17:58:54.653Z,41.90
2018-08-12T18:01:22.711Z,42.50
2018-08-12T18:03:50.873Z,42.70
2018-08-12T18:06:18.930Z,42.80
2018-08-12T18:08:46.988Z,43.10
2018-08-12T18:11:15.065Z,43.20
2018-08-12T18:13:43.141Z,43.80
2018-08-12T18:16:11.218Z,44.40
2018-08-12T18:18:39.264Z,45.70
2018-08-12T18:21:07.356Z,46.10
2018-08-12T18:23:35.513Z,45.50
2018-08-12T18:26:03.571Z,45.80
2018-08-12T18:28:31.652Z,46.70
2018-08-12T18:30:59.769Z,46.70
2018-08-12T18:33:28.001Z,46.90
2018-08-12T18:35:56.129Z,46.60
2018-08-12T18:38:24.237Z,47.00
2018-08-12T18:40:52.277Z,47.60
2018-08-12T18:43:20.437Z,48.00
2018-08-12T18:45:48.597Z,49.10
2018-08-12T18:48:16.751Z,49.40
2018-08-12T18:50:44.822Z,49.70
2018-08-12T18:53:12.961Z,49.10
2018-08-12T18:55:41.045Z,49.80
2018-08-12T18:58:09.225Z,50.90
2018-08-12T19:00:37.335Z,50.00
2018-08-12T19:03:05.574Z,49.60
2018-08-12T19:05:33.626Z,49.90
2018-08-12T19:08:01.726Z,50.20
2018-08-12T19:10:29.793Z,49.40
2018-08-12T19:12:57.876Z,50.00
2018-08-12T19:15:25.963Z,50.30
2018-08-12T19:17:54.026Z,50.30
2018-08-12T19:20:22.110Z,50.60
2018-08-12T19:22:50.163Z,52.00
2018-08-12T19:25:18.217Z,51.30
2018-08-12T19:27:46.294Z,51.70
2018-08-12T19:30:14.426Z,51.50
2018-08-12T19:32:42.508Z,51.90
2018-08-12T19:35:11.485Z,51.90
2018-08-12T19:37:39.571Z,51.60
2018-08-12T19:40:09.208Z,51.70
2018-08-12T19:42:37.459Z,51.80
2018-08-12T19:45:06.795Z,52.00
2018-08-12T19:47:34.887Z,52.60
2018-08-12T19:50:02.967Z,52.80
2018-08-12T19:52:31.116Z,53.80
2018-08-12T19:54:59.173Z,54.00
2018-08-12T19:57:27.280Z,53.60
2018-08-12T19:59:55.400Z,54.40
2018-08-12T20:02:23.519Z,54.20
2018-08-12T20:04:52.018Z,54.90
2018-08-12T20:07:20.104Z,55.00
2018-08-12T20:09:48.256Z,54.50
2018-08-12T20:12:16.413Z,54.60
2018-08-12T20:14:44.395Z,55.00
2018-08-12T20:17:12.492Z,54.70
2018-08-12T20:19:40.587Z,54.80
2018-08-12T20:22:12.148Z,55.20
2018-08-12T20:24:40.682Z,55.70
2018-08-12T20:27:09.195Z,55.70
2018-08-12T20:29:37.321Z,55.40
2018-08-12T20:32:05.387Z,55.80
2018-08-12T20:34:33.498Z,55.80
2018-08-12T20:37:01.563Z,56.00
2018-08-12T20:39:29.707Z,57.20
2018-08-12T20:41:57.841Z,56.70
2018-08-12T20:44:25.961Z,57.10
2018-08-12T20:46:54.020Z,57.70
2018-08-12T20:49:22.257Z,57.60
2018-08-12T20:51:50.368Z,57.00
2018-08-12T20:54:18.541Z,58.30
2018-08-12T20:56:46.612Z,58.40
2018-08-12T20:59:14.786Z,57.70
2018-08-12T21:01:44.078Z,57.90
2018-08-12T21:04:12.128Z,57.40
2018-08-12T21:06:40.240Z,58.10
2018-08-12T21:09:09.541Z,58.20
2018-08-12T21:11:37.672Z,58.40
2018-08-12T21:14:05.718Z,58.60
2018-08-12T21:16:33.850Z,59.10
2018-08-12T21:19:01.922Z,58.70
2018-08-12T21:21:29.952Z,60.40
2018-08-12T21:23:58.006Z,60.30
2018-08-12T21:26:26.147Z,60.30
2018-08-12T21:28:54.312Z,62.00
2018-08-12T21:31:22.386Z,62.20
2018-08-12T21:33:50.561Z,61.40
2018-08-12T21:36:18.631Z,61.90
2018-08-12T21:38:46.668Z,62.10
2018-08-12T21:41:14.944Z,62.40
2018-08-12T21:43:43.272Z,62.30
2018-08-12T21:46:11.358Z,63.20
2018-08-12T21:48:39.664Z,63.80
2018-08-12T21:51:07.763Z,64.40
2018-08-12T21:53:36.526Z,64.90
2018-08-12T21:56:04.860Z,65.60
2018-08-12T21:58:32.981Z,66.40
2018-08-12T22:01:01.049Z,67.60
2018-08-12T22:03:29.181Z,68.20
2018-08-12T22:05:57.236Z,69.00
2018-08-12T22:08:25.317Z,69.00
2018-08-12T22:10:53.368Z,69.00
2018-08-12T22:13:22.385Z,71.20
2018-08-12T22:15:50.448Z,71.70
2018-08-12T22:18:18.545Z,72.80
2018-08-12T22:20:46.614Z,73.90
2018-08-12T22:23:14.672Z,76.70
2018-08-12T22:25:43.257Z,78.50
2018-08-12T22:28:11.370Z,79.70
2018-08-12T22:30:39.529Z,80.90
2018-08-12T22:33:07.650Z,81.40
2018-08-12T22:35:35.752Z,82.20
2018-08-12T22:38:03.846Z,82.60
2018-08-12T22:40:31.919Z,85.30
2018-08-12T22:42:59.990Z,85.50
2018-08-12T22:45:28.062Z,86.30
2018-08-12T22:47:56.167Z,89.00
2018-08-12T22:50:24.288Z,89.60
2018-08-12T22:52:52.345Z,90.40
2018-08-12T22:55:20.414Z,90.70
2018-08-12T22:57:48.485Z,91.60
2018-08-12T23:00:18.837Z,91.70
2018-08-12T23:02:47.264Z,91.90
2018-08-12T23:05:15.304Z,92.90
2018-08-12T23:07:43.415Z,93.80
2018-08-12T23:10:11.472Z,94.10
2018-08-12T23:12:40.037Z,94.70
2018-08-12T23:15:19.839Z,95.30
2018-08-12T23:17:47.922Z,95.20
2018-08-12T23:20:16.018Z,95.30
2018-08-12T23:22:44.106Z,95.50
2018-08-12T23:25:12.211Z,96.00
2018-08-12T23:27:40.309Z,96.50
2018-08-12T23:30:08.958Z,96.70
2018-08-12T23:32:37.838Z,97.40
2018-08-12T23:35:06.012Z,97.30
2018-08-12T23:37:34.305Z,97.70
2018-08-12T23:40:02.401Z,97.90
2018-08-12T23:42:30.504Z,98.20
2018-08-12T23:44:58.620Z,98.10
2018-08-12T23:47:27.402Z,98.10
2018-08-12T23:49:55.503Z,98.40
2018-08-12T23:52:23.648Z,98.00
2018-08-12T23:54:51.765Z,98.20
2018-08-12T23:57:19.922Z,98.20
2018-08-12T23:59:48.006Z,97.20
